createdAt,value
2022-12-25T00:01:24.701Z,97428.16
2022-12-25T00:03:52.800Z,97432.25
2022-12-25T00:06:19.628Z,97427.47
2022-12-25T00:08:46.451Z,97425.97
2022-12-25T00:11:16.076Z,97430.41
2022-12-25T00:13:43.165Z,97426.44
2022-12-25T00:16:13.372Z,97424.88
2022-12-25T00:18:39.880Z,97436.91
2022-12-25T00:21:07.299Z,97429.66
2022-12-25T00:23:34.975Z,97419.28
2022-12-25T00:26:06.853Z,97415.97
2022-12-25T00:28:33.460Z,97420.47
2022-12-25T00:31:00.007Z,97418.97
2022-12-25T00:33:26.491Z,97422.25
2022-12-25T00:36:00.210Z,97425.97
2022-12-25T00:38:27.859Z,97419.53
2022-12-25T00:40:54.956Z,97426.34
2022-12-25T00:43:21.743Z,97421.94
2022-12-25T00:45:59.542Z,97427.09
2022-12-25T00:48:27.398Z,97439.28
2022-12-25T00:50:59.031Z,97427.66
2022-12-25T00:53:26.140Z,97430.00
2022-12-25T00:55:58.381Z,97423.22
2022-12-25T00:58:27.368Z,97417.69
2022-12-25T01:00:54.262Z,97419.53
2022-12-25T01:03:20.811Z,97420.81
2022-12-25T01:05:58.816Z,97407.38
2022-12-25T01:08:26.399Z,97412.97
2022-12-25T01:10:58.291Z,97417.56
2022-12-25T01:13:25.145Z,97421.41
2022-12-25T01:15:54.807Z,97424.25
2022-12-25T01:18:23.261Z,97418.03
2022-12-25T01:20:49.920Z,97419.91
2022-12-25T01:23:17.006Z,97426.94
2022-12-25T01:25:43.579Z,97416.53
2022-12-25T01:28:10.114Z,97423.94
2022-12-25T01:30:36.555Z,97432.38
2022-12-25T01:33:03.233Z,97434.63
2022-12-25T01:35:29.809Z,97422.34
2022-12-25T01:37:56.276Z,97434.53
2022-12-25T01:40:22.871Z,97431.47
2022-12-25T01:42:49.415Z,97431.47
2022-12-25T01:45:44.808Z,97426.31
2022-12-25T01:48:16.577Z,97414.81
2022-12-25T01:50:45.883Z,97421.25
2022-12-25T01:53:12.735Z,97419.16
2022-12-25T01:55:41.610Z,97417.88
2022-12-25T01:58:08.548Z,97430.66
2022-12-25T02:00:35.725Z,97423.03
2022-12-25T02:03:02.978Z,97422.81
2022-12-25T02:05:32.715Z,97416.13
2022-12-25T02:08:04.213Z,97420.09
2022-12-25T02:10:30.758Z,97417.19
2022-12-25T02:12:57.594Z,97417.88
2022-12-25T02:15:34.564Z,97413.22
2022-12-25T02:18:27.010Z,97413.91
2022-12-25T02:21:09.567Z,97414.50
2022-12-25T02:24:17.415Z,97411.81
2022-12-25T02:27:02.907Z,97414.94
2022-12-25T02:29:55.389Z,97410.16
2022-12-25T02:32:39.869Z,97408.78
2022-12-25T02:35:18.295Z,97403.03
2022-12-25T02:38:01.870Z,97404.09
2022-12-25T02:40:39.932Z,97404.19
2022-12-25T02:43:30.834Z,97413.91
2022-12-25T02:46:18.836Z,97406.41
2022-12-25T02:49:09.431Z,97406.31
2022-12-25T02:51:57.557Z,97412.91
2022-12-25T02:54:49.352Z,97416.56
2022-12-25T02:57:37.323Z,97410.09
2022-12-25T03:00:24.392Z,97419.03
2022-12-25T03:03:11.482Z,97421.72
2022-12-25T03:05:59.807Z,97407.31
2022-12-25T03:08:37.066Z,97400.53
2022-12-25T03:11:26.143Z,97393.28
2022-12-25T03:14:17.747Z,97399.47
2022-12-25T03:16:52.917Z,97391.47
2022-12-25T03:19:52.800Z,97380.47
2022-12-25T03:22:47.426Z,97376.00
2022-12-25T03:25:33.767Z,97381.25
2022-12-25T03:28:00.652Z,97373.38
2022-12-25T03:31:03.058Z,97363.75
2022-12-25T03:33:48.416Z,97359.75
2022-12-25T03:36:34.545Z,97348.16
2022-12-25T03:39:19.351Z,97357.72
2022-12-25T03:42:19.596Z,97375.38
2022-12-25T03:45:35.420Z,97375.69
2022-12-25T03:48:27.632Z,97372.94
2022-12-25T03:51:21.949Z,97375.88
2022-12-25T03:54:14.351Z,97366.38
2022-12-25T03:57:01.410Z,97370.56
2022-12-25T03:59:46.898Z,97370.25
2022-12-25T04:02:31.806Z,97377.59
2022-12-25T04:05:17.015Z,97370.09
2022-12-25T04:08:02.035Z,97364.88
2022-12-25T04:10:47.066Z,97372.44
2022-12-25T04:13:33.134Z,97372.91
2022-12-25T04:16:17.979Z,97375.56
2022-12-25T04:19:03.242Z,97372.44
2022-12-25T04:21:48.617Z,97358.34
2022-12-25T04:24:33.675Z,97362.66
2022-12-25T04:27:18.516Z,97364.22
2022-12-25T04:30:03.347Z,97361.19
2022-12-25T04:32:48.746Z,97368.72
2022-12-25T04:35:34.185Z,97368.66
2022-12-25T04:38:00.773Z,97366.81
2022-12-25T04:40:27.396Z,97362.19
2022-12-25T04:42:53.861Z,97364.47
2022-12-25T04:45:20.484Z,97368.22
2022-12-25T04:47:47.063Z,97372.28
2022-12-25T04:50:13.663Z,97363.88
2022-12-25T04:52:41.206Z,97358.44
2022-12-25T04:55:09.293Z,97357.25
2022-12-25T04:57:35.954Z,97350.31
2022-12-25T05:00:02.511Z,97343.84
2022-12-25T05:02:29.153Z,97348.50
2022-12-25T05:04:55.799Z,97345.16
2022-12-25T05:07:22.404Z,97340.38
2022-12-25T05:09:48.947Z,97337.44
2022-12-25T05:12:15.555Z,97334.53
2022-12-25T05:14:42.205Z,97331.84
2022-12-25T05:17:08.660Z,97335.38
2022-12-25T05:19:35.266Z,97341.13
2022-12-25T05:22:01.763Z,97333.66
2022-12-25T05:24:28.730Z,97332.53
2022-12-25T05:26:55.498Z,97334.53
2022-12-25T05:29:22.030Z,97331.31
2022-12-25T05:31:48.572Z,97327.03
2022-12-25T05:34:15.150Z,97332.41
2022-12-25T05:36:41.717Z,97333.47
2022-12-25T05:39:08.218Z,97332.78
2022-12-25T05:41:35.116Z,97327.63
2022-12-25T05:44:02.029Z,97327.38
2022-12-25T05:46:28.659Z,97322.41
2022-12-25T05:48:55.632Z,97312.34
2022-12-25T05:51:22.181Z,97310.25
2022-12-25T05:53:48.827Z,97308.13
2022-12-25T05:56:15.351Z,97304.53
2022-12-25T05:58:42.208Z,97306.38
2022-12-25T06:01:22.861Z,97304.16
2022-12-25T06:03:49.383Z,97307.56
2022-12-25T06:06:15.945Z,97302.75
2022-12-25T06:08:43.150Z,97303.94
2022-12-25T06:11:10.736Z,97305.00
2022-12-25T06:13:37.253Z,97297.16
2022-12-25T06:16:05.774Z,97298.94
2022-12-25T06:18:35.836Z,97293.31
2022-12-25T06:21:06.462Z,97283.13
2022-12-25T06:23:32.990Z,97280.22
2022-12-25T06:26:00.330Z,97286.75
2022-12-25T06:28:26.868Z,97291.09
2022-12-25T06:30:53.324Z,97292.72
2022-12-25T06:33:19.770Z,97294.13
2022-12-25T06:35:46.217Z,97285.38
2022-12-25T06:38:12.762Z,97279.44
2022-12-25T06:40:39.293Z,97285.16
2022-12-25T06:43:05.816Z,97278.72
2022-12-25T06:45:35.645Z,97281.84
2022-12-25T06:48:02.249Z,97288.91
2022-12-25T06:50:28.753Z,97290.19
2022-12-25T06:52:56.747Z,97301.53
2022-12-25T06:55:23.211Z,97293.31
2022-12-25T06:57:49.701Z,97298.56
2022-12-25T07:00:16.315Z,97298.44
2022-12-25T07:02:46.591Z,97299.25
2022-12-25T07:05:13.062Z,97298.44
2022-12-25T07:07:39.576Z,97297.38
2022-12-25T07:10:06.788Z,97304.03
2022-12-25T07:12:33.345Z,97303.25
2022-12-25T07:14:59.791Z,97312.72
2022-12-25T07:17:26.409Z,97293.41
2022-12-25T07:19:52.945Z,97287.78
2022-12-25T07:22:19.481Z,97285.47
2022-12-25T07:24:45.990Z,97281.72
2022-12-25T07:27:12.516Z,97278.94
2022-12-25T07:29:39.023Z,97280.78
2022-12-25T07:32:06.086Z,97287.78
2022-12-25T07:34:32.595Z,97277.16
2022-12-25T07:36:59.100Z,97275.72
2022-12-25T07:39:25.593Z,97277.00
2022-12-25T07:41:52.092Z,97269.28
2022-12-25T07:44:18.745Z,97262.03
2022-12-25T07:46:45.842Z,97269.88
2022-12-25T07:49:12.726Z,97257.72
2022-12-25T07:51:39.584Z,97268.38
2022-12-25T07:54:06.329Z,97261.69
2022-12-25T07:56:32.947Z,97261.25
2022-12-25T07:58:59.481Z,97268.72
2022-12-25T08:01:27.325Z,97272.81
2022-12-25T08:03:56.858Z,97276.34
2022-12-25T08:06:26.729Z,97282.13
2022-12-25T08:08:53.297Z,97290.66
2022-12-25T08:11:19.866Z,97282.13
2022-12-25T08:13:46.522Z,97278.94
2022-12-25T08:16:13.212Z,97279.50
2022-12-25T08:18:40.305Z,97283.97
2022-12-25T08:21:13.090Z,97285.81
2022-12-25T08:23:42.247Z,97285.50
2022-12-25T08:26:12.857Z,97290.41
2022-12-25T08:28:39.796Z,97287.00
2022-12-25T08:31:16.309Z,97284.44
2022-12-25T08:33:43.366Z,97288.91
2022-12-25T08:36:11.946Z,97297.47
2022-12-25T08:38:39.374Z,97300.41
2022-12-25T08:41:06.763Z,97303.09
2022-12-25T08:43:33.366Z,97293.16
2022-12-25T08:45:59.923Z,97285.88
2022-12-25T08:48:27.822Z,97280.50
2022-12-25T08:50:54.737Z,97281.91
2022-12-25T08:53:22.105Z,97272.53
2022-12-25T08:55:48.589Z,97269.72
2022-12-25T08:58:16.346Z,97257.16
2022-12-25T09:00:42.991Z,97234.59
2022-12-25T09:03:09.673Z,97222.84
2022-12-25T09:05:37.192Z,97221.53
2022-12-25T09:08:03.874Z,97230.09
2022-12-25T09:10:30.672Z,97228.31
2022-12-25T09:12:57.256Z,97237.56
2022-12-25T09:15:23.875Z,97239.69
2022-12-25T09:17:50.416Z,97243.78
2022-12-25T09:20:16.935Z,97245.16
2022-12-25T09:22:43.475Z,97253.34
2022-12-25T09:25:10.314Z,97249.00
2022-12-25T09:27:36.796Z,97249.69
2022-12-25T09:30:04.869Z,97248.25
2022-12-25T09:32:31.431Z,97246.22
2022-12-25T09:34:57.919Z,97246.91
2022-12-25T09:37:24.497Z,97256.06
2022-12-25T09:39:51.045Z,97248.03
2022-12-25T09:42:20.122Z,97257.22
2022-12-25T09:44:55.109Z,97255.53
2022-12-25T09:47:30.971Z,97246.53
2022-12-25T09:50:22.791Z,97245.31
2022-12-25T09:53:03.416Z,97254.75
2022-12-25T09:55:33.532Z,97240.66
2022-12-25T09:58:08.588Z,97239.16
2022-12-25T10:00:40.850Z,97231.53
2022-12-25T10:03:31.747Z,97221.97
2022-12-25T10:06:18.578Z,97212.09
2022-12-25T10:09:13.519Z,97208.91
2022-12-25T10:12:01.493Z,97199.53
2022-12-25T10:14:39.952Z,97201.28
2022-12-25T10:17:21.162Z,97197.56
2022-12-25T10:20:19.614Z,97198.81
2022-12-25T10:22:59.333Z,97197.16
2022-12-25T10:25:26.270Z,97194.47
2022-12-25T10:27:58.315Z,97190.75
2022-12-25T10:30:27.272Z,97190.75
2022-12-25T10:32:57.026Z,97191.47
2022-12-25T10:35:27.412Z,97188.06
2022-12-25T10:38:10.127Z,97175.66
2022-12-25T10:41:06.973Z,97178.41
2022-12-25T10:43:45.519Z,97170.97
2022-12-25T10:46:14.560Z,97159.38
2022-12-25T10:48:44.847Z,97156.94
2022-12-25T10:51:11.658Z,97155.09
2022-12-25T10:53:41.393Z,97157.34
2022-12-25T10:56:16.906Z,97150.34
2022-12-25T10:58:44.098Z,97148.72
2022-12-25T11:01:11.630Z,97144.94
2022-12-25T11:03:41.138Z,97150.09
2022-12-25T11:06:22.483Z,97140.97
2022-12-25T11:09:00.822Z,97146.38
2022-12-25T11:11:28.717Z,97146.38
2022-12-25T11:13:58.679Z,97145.03
2022-12-25T11:16:43.282Z,97144.50
2022-12-25T11:19:28.476Z,97145.31
2022-12-25T11:21:58.344Z,97142.09
2022-12-25T11:24:28.158Z,97129.63
2022-12-25T11:26:57.695Z,97123.66
2022-12-25T11:29:41.882Z,97127.19
2022-12-25T11:32:29.325Z,97125.34
2022-12-25T11:34:56.965Z,97124.50
2022-12-25T11:37:43.370Z,97112.59
2022-12-25T11:40:19.104Z,97115.03
2022-12-25T11:42:51.576Z,97102.31
2022-12-25T11:45:27.639Z,97092.28
2022-12-25T11:47:56.897Z,97101.28
2022-12-25T11:50:36.168Z,97100.22
2022-12-25T11:53:06.668Z,97093.72
2022-12-25T11:55:57.093Z,97087.84
2022-12-25T11:58:31.915Z,97087.81
2022-12-25T12:01:02.456Z,97078.06
2022-12-25T12:03:37.407Z,97068.81
2022-12-25T12:06:19.056Z,97071.53
2022-12-25T12:08:50.062Z,97065.53
2022-12-25T12:11:28.690Z,97045.16
2022-12-25T12:14:26.258Z,97039.97
2022-12-25T12:16:52.991Z,97039.97
2022-12-25T12:19:27.036Z,97034.75
2022-12-25T12:21:57.077Z,97039.34
2022-12-25T12:24:28.156Z,97037.47
2022-12-25T12:27:04.440Z,97041.53
2022-12-25T12:29:44.340Z,97040.69
2022-12-25T12:32:36.575Z,97040.44
2022-12-25T12:35:20.419Z,97046.72
2022-12-25T12:37:52.483Z,97049.94
2022-12-25T12:40:39.153Z,97049.34
2022-12-25T12:43:22.188Z,97037.09
2022-12-25T12:45:56.353Z,97050.41
2022-12-25T12:48:27.492Z,97046.00
2022-12-25T12:51:05.718Z,97036.47
2022-12-25T12:53:33.428Z,97031.53
2022-12-25T12:56:32.473Z,97026.13
2022-12-25T12:58:58.996Z,97020.13
2022-12-25T13:02:08.836Z,97022.63
2022-12-25T13:04:50.346Z,97012.22
2022-12-25T13:07:28.077Z,97010.25
2022-12-25T13:10:11.966Z,97014.63
2022-12-25T13:12:38.575Z,97003.72
2022-12-25T13:15:13.171Z,97002.38
2022-12-25T13:17:44.583Z,97010.81
2022-12-25T13:20:24.941Z,97012.97
2022-12-25T13:22:53.054Z,97015.69
2022-12-25T13:25:23.734Z,97018.13
2022-12-25T13:27:57.660Z,97020.06
2022-12-25T13:30:25.471Z,97025.00
2022-12-25T13:32:52.196Z,97031.53
2022-12-25T13:35:21.171Z,97025.56
2022-12-25T13:37:47.989Z,97037.56
2022-12-25T13:40:26.939Z,97040.59
2022-12-25T13:42:59.607Z,97020.72
2022-12-25T13:45:28.706Z,97024.00
2022-12-25T13:47:56.117Z,97027.78
2022-12-25T13:50:34.229Z,97025.09
2022-12-25T13:53:13.288Z,97018.84
2022-12-25T13:55:41.692Z,97013.44
2022-12-25T13:58:36.775Z,97008.53
2022-12-25T14:01:03.681Z,97013.16
2022-12-25T14:03:33.445Z,97011.81
2022-12-25T14:06:07.814Z,97016.97
2022-12-25T14:08:35.798Z,97019.44
2022-12-25T14:11:05.770Z,97014.84
2022-12-25T14:13:37.476Z,97018.94
2022-12-25T14:16:04.729Z,97022.50
2022-12-25T14:18:31.402Z,97015.50
2022-12-25T14:21:02.394Z,97012.25
2022-12-25T14:23:42.999Z,97014.69
2022-12-25T14:26:17.332Z,97007.94
2022-12-25T14:28:51.679Z,97009.88
2022-12-25T14:31:18.909Z,97014.28
2022-12-25T14:33:46.763Z,97018.88
2022-12-25T14:36:14.768Z,97014.50
2022-12-25T14:38:43.817Z,97022.41
2022-12-25T14:41:36.943Z,97023.78
2022-12-25T14:44:38.709Z,97024.84
2022-12-25T14:47:11.410Z,97022.94
2022-12-25T14:49:38.376Z,97019.16
2022-12-25T14:52:15.392Z,97021.56
2022-12-25T14:54:46.393Z,97025.59
2022-12-25T14:57:47.193Z,97023.91
2022-12-25T15:00:27.314Z,97020.44
2022-12-25T15:02:56.977Z,97019.84
2022-12-25T15:05:27.745Z,97023.38
2022-12-25T15:08:00.679Z,97023.56
2022-12-25T15:13:15.532Z,97017.56
2022-12-25T15:15:50.116Z,97019.16
2022-12-25T15:18:17.640Z,97016.38
2022-12-25T15:20:44.215Z,97014.75
2022-12-25T15:23:19.702Z,97027.25
2022-12-25T15:25:47.492Z,97035.91
2022-12-25T15:28:14.266Z,97032.56
2022-12-25T15:30:41.095Z,97023.88
2022-12-25T15:33:12.615Z,97025.28
2022-12-25T15:35:39.168Z,97005.88
2022-12-25T15:38:05.738Z,97015.59
2022-12-25T15:40:32.358Z,97020.16
2022-12-25T15:42:59.879Z,97016.34
2022-12-25T15:45:30.332Z,97027.75
2022-12-25T15:47:57.379Z,97035.94
2022-12-25T15:50:24.511Z,97039.75
2022-12-25T15:52:51.042Z,97033.84
2022-12-25T15:55:17.715Z,97044.97
2022-12-25T15:57:47.008Z,97058.72
2022-12-25T16:00:18.808Z,97057.38
2022-12-25T16:02:46.002Z,97054.88
2022-12-25T16:05:12.965Z,97051.59
2022-12-25T16:07:39.768Z,97055.38
2022-12-25T16:10:11.212Z,97062.34
2022-12-25T16:12:39.000Z,97066.56
2022-12-25T16:15:06.399Z,97071.75
2022-12-25T16:17:32.996Z,97068.75
2022-12-25T16:19:59.734Z,97063.81
2022-12-25T16:22:26.351Z,97051.31
2022-12-25T16:24:54.493Z,97060.22
2022-12-25T16:27:21.515Z,97057.50
2022-12-25T16:29:48.325Z,97067.47
2022-12-25T16:32:15.597Z,97061.22
2022-12-25T16:34:44.917Z,97057.22
2022-12-25T16:37:11.401Z,97071.00
2022-12-25T16:39:37.862Z,97070.56
2022-12-25T16:42:04.354Z,97076.72
2022-12-25T16:44:30.976Z,97079.34
2022-12-25T16:46:57.593Z,97068.53
2022-12-25T16:49:24.082Z,97076.34
2022-12-25T16:51:50.654Z,97069.16
2022-12-25T16:54:17.107Z,97061.44
2022-12-25T16:56:43.589Z,97061.38
2022-12-25T16:59:10.216Z,97055.00
2022-12-25T17:01:43.422Z,97054.22
2022-12-25T17:04:10.222Z,97052.34
2022-12-25T17:06:37.541Z,97051.22
2022-12-25T17:09:04.386Z,97049.06
2022-12-25T17:11:31.866Z,97051.25
2022-12-25T17:14:01.996Z,97063.38
2022-12-25T17:16:31.982Z,97062.31
2022-12-25T17:19:01.444Z,97064.00
2022-12-25T17:21:29.629Z,97066.19
2022-12-25T17:24:02.449Z,97062.19
2022-12-25T17:26:31.076Z,97065.13
2022-12-25T17:28:58.278Z,97071.97
2022-12-25T17:31:24.771Z,97073.00
2022-12-25T17:33:51.507Z,97079.31
2022-12-25T17:36:20.051Z,97085.22
2022-12-25T17:38:47.639Z,97084.97
2022-12-25T17:41:16.249Z,97098.88
2022-12-25T17:43:45.384Z,97084.94
2022-12-25T17:46:17.997Z,97081.97
2022-12-25T17:48:45.110Z,97089.81
2022-12-25T17:51:14.268Z,97086.00
2022-12-25T17:53:43.421Z,97089.50
2022-12-25T17:56:11.459Z,97090.75
2022-12-25T17:58:38.484Z,97090.34
2022-12-25T18:01:10.032Z,97088.88
2022-12-25T18:03:37.005Z,97098.59
2022-12-25T18:06:04.907Z,97093.03
2022-12-25T18:08:38.608Z,97082.25
2022-12-25T18:11:08.694Z,97105.38
2022-12-25T18:13:35.460Z,97114.19
2022-12-25T18:16:06.734Z,97103.72
2022-12-25T18:18:34.272Z,97100.50
2022-12-25T18:21:01.788Z,97112.53
2022-12-25T18:23:29.045Z,97106.50
2022-12-25T18:25:55.837Z,97110.31
2022-12-25T18:28:23.187Z,97104.59
2022-12-25T18:30:49.791Z,97110.13
2022-12-25T18:33:16.318Z,97108.41
2022-12-25T18:35:43.755Z,97119.00
2022-12-25T18:38:11.447Z,97123.81
2022-12-25T18:40:42.508Z,97130.38
2022-12-25T18:43:09.261Z,97126.78
2022-12-25T18:45:36.033Z,97126.00
2022-12-25T18:48:03.322Z,97127.41
2022-12-25T18:50:30.265Z,97136.66
2022-12-25T18:52:56.732Z,97139.13
2022-12-25T18:55:23.246Z,97138.31
2022-12-25T18:57:49.921Z,97154.38
2022-12-25T19:00:16.843Z,97141.84
2022-12-25T19:02:43.572Z,97153.56
2022-12-25T19:05:10.284Z,97148.75
2022-12-25T19:07:37.146Z,97145.38
2022-12-25T19:10:05.463Z,97149.94
2022-12-25T19:12:32.025Z,97150.41
2022-12-25T19:14:58.568Z,97148.41
2022-12-25T19:17:31.370Z,97142.19
2022-12-25T19:19:58.558Z,97145.94
2022-12-25T19:22:25.089Z,97147.59
2022-12-25T19:24:51.637Z,97135.06
2022-12-25T19:27:18.215Z,97153.44
2022-12-25T19:29:44.881Z,97134.00
2022-12-25T19:32:11.670Z,97134.72
2022-12-25T19:34:38.339Z,97126.53
2022-12-25T19:37:05.139Z,97122.19
2022-12-25T19:39:31.714Z,97121.13
2022-12-25T19:41:58.247Z,97120.56
2022-12-25T19:44:24.788Z,97129.59
2022-12-25T19:46:51.353Z,97134.72
2022-12-25T19:49:17.880Z,97127.34
2022-12-25T19:51:46.170Z,97126.66
2022-12-25T19:54:15.346Z,97134.47
2022-12-25T19:56:42.283Z,97138.91
2022-12-25T19:59:10.498Z,97130.50
2022-12-25T20:01:38.743Z,97133.78
2022-12-25T20:04:07.979Z,97137.38
2022-12-25T20:06:36.092Z,97141.25
2022-12-25T20:09:06.340Z,97141.09
2022-12-25T20:11:34.969Z,97144.03
2022-12-25T20:14:02.105Z,97136.63
2022-12-25T20:16:28.953Z,97135.88
2022-12-25T20:18:56.774Z,97138.00
2022-12-25T20:21:23.957Z,97135.22
2022-12-25T20:23:52.564Z,97140.03
2022-12-25T20:26:21.985Z,97136.63
2022-12-25T20:28:48.760Z,97139.25
2022-12-25T20:31:24.413Z,97141.44
2022-12-25T20:33:51.004Z,97141.19
2022-12-25T20:36:18.877Z,97136.47
2022-12-25T20:38:45.605Z,97138.59
2022-12-25T20:41:31.171Z,97129.22
2022-12-25T20:43:58.054Z,97135.53
2022-12-25T20:46:25.884Z,97142.72
2022-12-25T20:48:53.595Z,97144.66
2022-12-25T20:51:22.850Z,97153.97
2022-12-25T20:53:49.987Z,97149.00
2022-12-25T20:56:18.975Z,97148.53
2022-12-25T20:58:45.850Z,97156.94
2022-12-25T21:01:15.735Z,97159.16
2022-12-25T21:03:43.396Z,97153.16
2022-12-25T21:06:10.798Z,97153.50
2022-12-25T21:08:38.075Z,97166.09
2022-12-25T21:11:06.265Z,97159.53
2022-12-25T21:13:43.541Z,97163.53
2022-12-25T21:16:13.450Z,97158.97
2022-12-25T21:18:40.508Z,97160.69
2022-12-25T21:21:07.925Z,97168.91
2022-12-25T21:23:38.860Z,97169.88
2022-12-25T21:26:20.525Z,97155.97
2022-12-25T21:28:51.805Z,97149.06
2022-12-25T21:31:19.346Z,97154.16
2022-12-25T21:33:52.298Z,97143.78
2022-12-25T21:36:23.735Z,97147.47
2022-12-25T21:39:02.293Z,97156.53
2022-12-25T21:41:30.621Z,97153.88
2022-12-25T21:43:57.765Z,97151.72
2022-12-25T21:46:25.499Z,97159.47
2022-12-25T21:48:52.545Z,97163.84
2022-12-25T21:51:43.966Z,97158.84
2022-12-25T21:54:11.747Z,97165.31
2022-12-25T21:56:44.529Z,97162.13
2022-12-25T21:59:15.299Z,97164.97
2022-12-25T22:01:42.708Z,97160.44
2022-12-25T22:04:11.570Z,97170.16
2022-12-25T22:06:57.086Z,97176.97
2022-12-25T22:09:24.247Z,97167.53
2022-12-25T22:12:09.590Z,97167.06
2022-12-25T22:14:56.203Z,97169.09
2022-12-25T22:17:43.580Z,97168.75
2022-12-25T22:20:34.499Z,97173.78
2022-12-25T22:23:01.222Z,97182.78
2022-12-25T22:25:28.461Z,97172.00
2022-12-25T22:27:55.259Z,97172.72
2022-12-25T22:30:27.721Z,97172.56
2022-12-25T22:32:54.932Z,97171.81
2022-12-25T22:35:21.848Z,97170.50
2022-12-25T22:37:49.582Z,97166.09
2022-12-25T22:40:18.223Z,97168.44
2022-12-25T22:42:44.841Z,97170.63
2022-12-25T22:45:12.453Z,97181.88
2022-12-25T22:47:39.784Z,97185.78
2022-12-25T22:50:07.552Z,97172.34
2022-12-25T22:52:34.183Z,97175.69
2022-12-25T22:55:00.921Z,97179.81
2022-12-25T22:57:27.690Z,97184.09
2022-12-25T22:59:54.309Z,97181.88
2022-12-25T23:02:21.285Z,97178.59
2022-12-25T23:04:47.976Z,97197.59
2022-12-25T23:07:15.534Z,97194.97
2022-12-25T23:09:43.642Z,97198.31
2022-12-25T23:12:29.800Z,97201.75
2022-12-25T23:14:57.230Z,97205.53
2022-12-25T23:17:59.260Z,97207.66
2022-12-25T23:20:44.202Z,97209.31
2022-12-25T23:23:35.185Z,97204.06
2022-12-25T23:26:08.809Z,97204.72
2022-12-25T23:28:55.931Z,97205.19
2022-12-25T23:31:26.935Z,97206.78
2022-12-25T23:33:53.601Z,97212.25
2022-12-25T23:36:20.316Z,97216.84
2022-12-25T23:38:46.906Z,97218.88
2022-12-25T23:41:13.652Z,97213.63
2022-12-25T23:43:40.124Z,97233.91
2022-12-25T23:46:06.644Z,97225.91
2022-12-25T23:48:33.186Z,97225.50
2022-12-25T23:51:06.941Z,97216.00
2022-12-25T23:53:34.196Z,97223.28
2022-12-25T23:56:01.268Z,97218.72
2022-12-25T23:58:28.844Z,97219.19
